Audubon, Iowa
Current Conditions -  °F | °C
As of 11:15 PM on Friday 19 Dec 2014 (Local Time) from KADU Reporting Station
Overcast Overcast  
Wind Chill: -6°   Ceiling: 700
Heat Index: -2°   Visibility: 7mi
Dew Point: -4°   Wind: 8mph
Humidity: 86%   Direction: 180°S
Pressure: 30.17"   Gusts: NA
Location:  41.72°N, 94.93°W
Report Text: KADU 200515Z AUTO 18007KT 7SM OVC007 M02/M04 A3017 RMK AO2
Loading
Personal Weather Stations






























Interactive Weather Map New forecast layout! Learn more

10-Day Weather Forecast

Advertisements
Track Severe Weather on mobile